Time;durP1;ratioP1;P1;durP2;ratioP2;P2;SDS_P1;SDS_P2;PMS_P1;PMS_P2;Temp;Humidity;BMP_temperature;BMP_pressure;BME280_temperature;BME280_humidity;BME280_pressure;Samples;Min_cycle;Max_cycle;Signal;HPM_P1;HPM_P2
2024/04/10 00:01:15;;;;;;;11.40;4.57;;;;;;;18.75;64.92;99946.63;5563592;25;20007;-49
2024/04/10 00:03:49;;;;;;;11.13;4.55;;;;;;;18.48;66.30;99949.28;5562973;25;20003;-50
2024/04/10 00:06:20;;;;;;;10.35;5.13;;;;;;;18.40;66.51;99949.19;5563333;25;20048;-52
2024/04/10 00:08:48;;;;;;;18.98;6.55;;;;;;;18.22;67.22;99952.66;5563003;25;20003;-51
2024/04/10 00:11:22;;;;;;;11.38;4.63;;;;;;;17.90;69.92;99946.84;5562817;25;19996;-53
2024/04/10 00:13:50;;;;;;;11.73;4.78;;;;;;;17.98;68.56;99941.56;5562808;25;19992;-54
2024/04/10 00:16:20;;;;;;;15.23;4.95;;;;;;;18.13;67.80;99942.75;5563066;25;20025;-53
2024/04/10 00:18:49;;;;;;;11.60;4.80;;;;;;;18.09;68.68;99938.66;5562999;25;20468;-52
2024/04/10 00:21:20;;;;;;;8.10;4.28;;;;;;;17.94;68.08;99942.84;5562724;25;19996;-53
2024/04/10 00:23:49;;;;;;;12.57;5.13;;;;;;;17.99;68.47;99951.34;5562428;25;20068;-51
2024/04/10 00:26:19;;;;;;;12.15;5.03;;;;;;;17.74;69.99;99959.06;5562636;25;19993;-53
2024/04/10 00:28:47;;;;;;;12.70;4.90;;;;;;;17.81;70.47;99966.59;5562461;25;20008;-54
2024/04/10 00:31:20;;;;;;;14.35;5.10;;;;;;;17.80;70.95;99962.19;5562281;25;20000;-50
2024/04/10 00:33:50;;;;;;;10.27;4.90;;;;;;;17.89;71.19;99951.38;5562629;25;19996;-55
2024/04/10 00:36:21;;;;;;;9.02;4.88;;;;;;;17.92;69.85;99955.63;5562449;25;20007;-51
2024/04/10 00:38:51;;;;;;;9.07;4.75;;;;;;;17.93;69.62;99957.31;5562396;25;19996;-53
2024/04/10 00:41:21;;;;;;;11.52;4.88;;;;;;;17.87;70.05;99957.94;5562233;25;20068;-49
2024/04/10 00:43:48;;;;;;;17.48;4.60;;;;;;;18.01;68.83;99949.34;5562368;25;20004;-54
2024/04/10 00:46:22;;;;;;;13.68;4.95;;;;;;;17.98;69.58;99960.44;5562205;25;20007;-51
2024/04/10 00:48:52;;;;;;;10.32;4.93;;;;;;;18.01;68.79;99970.94;5562190;25;20160;-52
2024/04/10 00:51:25;;;;;;;13.40;5.13;;;;;;;18.06;68.98;99971.38;5562055;25;19993;-54
2024/04/10 00:53:56;;;;;;;10.73;4.83;;;;;;;18.02;69.09;99967.25;5562425;25;19996;-51
2024/04/10 00:56:23;;;;;;;11.05;4.53;;;;;;;18.00;68.80;99969.25;5562161;25;19996;-50
2024/04/10 00:58:55;;;;;;;10.55;4.47;;;;;;;18.07;68.57;99964.97;5562269;25;20068;-50
2024/04/10 01:01:23;;;;;;;9.45;4.60;;;;;;;17.97;69.24;99961.44;5561403;25;20004;-53
2024/04/10 01:03:55;;;;;;;14.73;4.80;;;;;;;18.06;68.91;99967.81;5562187;25;20168;-52
2024/04/10 01:06:29;;;;;;;8.57;4.32;;;;;;;18.10;68.98;99970.06;5562231;25;19993;-49
2024/04/10 01:09:00;;;;;;;8.73;4.57;;;;;;;18.14;68.64;99971.44;5562110;25;20044;-53
2024/04/10 01:11:29;;;;;;;8.38;4.70;;;;;;;18.12;69.37;99973.47;5567959;25;20068;-53
2024/04/10 01:13:59;;;;;;;10.15;4.65;;;;;;;18.22;69.15;99971.56;5567214;25;20028;-52
2024/04/10 01:16:27;;;;;;;7.85;4.60;;;;;;;18.20;69.44;99976.28;5567094;25;20041;-54
2024/04/10 01:19:00;;;;;;;9.63;4.63;;;;;;;18.17;69.61;99971.19;5566673;25;20064;-53
2024/04/10 01:21:27;;;;;;;10.95;4.88;;;;;;;18.19;68.90;99974.56;5563174;25;20390;-53
2024/04/10 01:24:01;;;;;;;11.68;4.60;;;;;;;18.09;69.36;99979.16;5562183;25;19996;-52
2024/04/10 01:26:29;;;;;;;10.10;5.20;;;;;;;17.90;70.06;99984.59;5561823;25;20008;-51
2024/04/10 01:28:59;;;;;;;13.63;4.85;;;;;;;17.67;71.47;99979.50;5562069;25;20033;-54
2024/04/10 01:31:30;;;;;;;9.00;4.50;;;;;;;17.71;71.80;99988.19;5561970;25;20004;-51
2024/04/10 01:34:00;;;;;;;7.50;4.65;;;;;;;17.50;73.00;99992.88;5562115;25;19997;-54
2024/04/10 01:36:28;;;;;;;18.90;4.97;;;;;;;17.72;71.53;99996.13;5562633;25;20462;-54
2024/04/10 01:39:01;;;;;;;11.88;4.70;;;;;;;17.69;71.28;99993.72;5562120;25;20008;-51
2024/04/10 01:41:28;;;;;;;8.48;4.72;;;;;;;17.86;70.98;99997.53;5561875;25;20151;-49
2024/04/10 01:43:58;;;;;;;9.18;4.50;;;;;;;17.92;70.89;100006.91;5561929;25;19997;-52
2024/04/10 01:46:26;;;;;;;10.25;3.65;;;;;;;17.89;71.01;99999.09;5562032;25;20461;-53
2024/04/10 01:48:56;;;;;;;9.68;3.80;;;;;;;17.93;71.05;100011.28;5561908;25;20011;-52
2024/04/10 01:51:24;;;;;;;8.90;3.65;;;;;;;17.96;70.87;100005.63;5561558;25;19996;-52
2024/04/10 01:53:54;;;;;;;11.18;3.08;;;;;;;18.09;70.89;100016.94;5561542;25;19996;-53
2024/04/10 01:56:24;;;;;;;9.25;3.60;;;;;;;18.11;70.96;100009.53;5561053;25;20053;-52
2024/04/10 01:58:54;;;;;;;10.80;3.40;;;;;;;18.27;70.00;100012.50;5561265;25;20041;-51
2024/04/10 02:01:21;;;;;;;11.75;3.30;;;;;;;18.26;69.79;100016.19;5561066;25;19997;-53
2024/04/10 02:03:51;;;;;;;10.60;3.10;;;;;;;18.26;69.94;100024.28;5560995;25;20065;-50
2024/04/10 02:06:19;;;;;;;11.95;3.35;;;;;;;18.34;69.86;100017.31;5560614;25;20033;-51
2024/04/10 02:08:49;;;;;;;13.23;3.00;;;;;;;18.41;69.79;100013.00;5561061;25;19992;-51
2024/04/10 02:11:26;;;;;;;6.88;2.58;;;;;;;18.24;70.21;100015.50;5560869;25;20008;-50
2024/04/10 02:13:59;;;;;;;8.27;3.03;;;;;;;18.27;70.11;100020.59;5559491;25;20465;-53
2024/04/10 02:16:26;;;;;;;9.85;3.30;;;;;;;18.22;69.94;100027.41;5561177;25;20009;-51
2024/04/10 02:18:57;;;;;;;10.48;3.15;;;;;;;18.07;71.00;100035.13;5560580;25;20283;-51
2024/04/10 02:21:24;;;;;;;13.50;3.05;;;;;;;18.00;70.76;100032.16;5560682;25;19997;-53
2024/04/10 02:23:54;;;;;;;10.93;2.83;;;;;;;18.10;70.99;100034.84;5560664;25;20006;-50
2024/04/10 02:26:22;;;;;;;9.50;2.97;;;;;;;18.07;70.56;100040.53;5560761;25;20000;-52
2024/04/10 02:28:53;;;;;;;6.85;2.83;;;;;;;17.96;71.57;100038.00;5560703;25;20064;-51
2024/04/10 02:31:23;;;;;;;9.10;2.90;;;;;;;17.73;71.71;100026.66;5560591;25;20000;-50
2024/04/10 02:35:28;;;;;;;8.05;2.70;;;;;;;17.56;72.17;100057.00;5579702;25;20338;-49
2024/04/10 02:37:56;;;;;;;;;;;;;;;17.61;71.54;100061.00;5543291;25;20017;-52
2024/04/10 02:40:29;;;;;;;8.27;2.53;;;;;;;17.53;71.54;100063.53;5542800;25;19990;-51
2024/04/10 02:43:04;;;;;;;;;;;;;;;17.62;71.32;100073.47;5543239;25;20363;-50
2024/04/10 02:45:34;;;;;;;11.23;2.47;;;;;;;17.50;70.91;100062.97;5542582;25;19931;-50
2024/04/10 02:48:05;;;;;;;10.02;2.55;;;;;;;17.40;71.26;100073.75;5542356;25;20001;-50
2024/04/10 02:50:38;;;;;;;9.65;2.58;;;;;;;17.38;71.34;100076.59;5542266;25;20422;-55
2024/04/10 02:53:06;;;;;;;10.40;2.28;;;;;;;17.25;70.87;100077.84;5542290;25;19998;-53
2024/04/10 02:55:36;;;;;;;7.97;2.20;;;;;;;17.29;70.62;100084.66;5542495;25;20373;-49
2024/04/10 02:58:03;;;;;;;9.82;2.60;;;;;;;17.35;70.19;100081.41;5542525;25;19997;-50
2024/04/10 03:00:33;;;;;;;7.57;2.38;;;;;;;17.34;69.19;100082.38;5542299;25;20364;-51
2024/04/10 03:03:01;;;;;;;7.10;2.00;;;;;;;17.38;68.72;100091.91;5542493;25;20008;-50
2024/04/10 03:05:32;;;;;;;8.90;2.30;;;;;;;17.39;68.34;100099.00;5542350;25;20298;-53
2024/04/10 03:08:02;;;;;;;10.20;2.38;;;;;;;17.26;68.39;100109.19;5542528;25;20007;-51
2024/04/10 03:10:32;;;;;;;8.20;2.05;;;;;;;17.19;68.88;100108.06;5542190;25;20065;-50
2024/04/10 03:13:00;;;;;;;5.63;1.90;;;;;;;16.94;68.62;100099.47;5542332;25;20008;-50
2024/04/10 03:15:33;;;;;;;6.00;1.80;;;;;;;16.94;68.76;100115.63;5542569;25;19993;-51
2024/04/10 03:18:00;;;;;;;8.77;1.92;;;;;;;16.88;68.87;100119.69;5542234;25;19997;-53
2024/04/10 03:20:31;;;;;;;12.85;1.98;;;;;;;16.98;68.59;100125.13;5541947;25;20007;-51
2024/04/10 03:22:59;;;;;;;9.38;2.10;;;;;;;16.99;68.36;100123.31;5540326;25;20031;-52
2024/04/10 03:25:33;;;;;;;7.97;2.10;;;;;;;17.14;67.47;100128.16;5542154;25;20046;-52
2024/04/10 03:28:01;;;;;;;12.13;2.10;;;;;;;17.11;67.43;100123.06;5542128;25;19997;-52
2024/04/10 03:30:32;;;;;;;9.65;2.08;;;;;;;17.04;67.30;100124.59;5542043;25;20069;-50
2024/04/10 03:32:59;;;;;;;6.55;2.03;;;;;;;16.85;67.50;100124.53;5541724;25;20008;-51
2024/04/10 03:35:30;;;;;;;9.85;2.20;;;;;;;16.81;68.18;100132.03;5541638;25;20005;-52
2024/04/10 03:37:57;;;;;;;7.75;2.15;;;;;;;16.78;67.39;100132.28;5541729;25;20022;-51
2024/04/10 03:40:27;;;;;;;8.05;2.00;;;;;;;16.82;67.29;100132.88;5541822;25;20009;-50
2024/04/10 03:43:00;;;;;;;5.60;1.77;;;;;;;16.85;67.51;100149.63;5541937;25;20005;-51
2024/04/10 03:45:30;;;;;;;8.05;1.60;;;;;;;16.88;66.92;100145.78;5532900;25;20005;-52
2024/04/10 03:48:00;;;;;;;5.95;2.10;;;;;;;16.68;67.50;100155.63;5526013;25;20008;-51
2024/04/10 03:50:30;;;;;;;5.45;2.00;;;;;;;16.50;67.58;100166.13;5525952;25;20069;-50
2024/04/10 03:53:00;;;;;;;6.03;1.92;;;;;;;16.63;67.33;100163.22;5525523;25;20077;-50
2024/04/10 03:55:28;;;;;;;8.05;1.88;;;;;;;16.67;67.14;100156.56;5525808;25;19997;-48
2024/04/10 03:58:00;;;;;;;5.45;2.15;;;;;;;16.63;66.83;100138.13;5523486;25;20068;-50
2024/04/10 04:00:28;;;;;;;5.93;1.75;;;;;;;16.53;66.43;100155.09;5488692;26;20009;-49
2024/04/10 04:02:58;;;;;;;5.50;1.80;;;;;;;16.41;67.03;100140.00;5488475;26;20002;-50
2024/04/10 04:05:26;;;;;;;7.13;1.77;;;;;;;16.54;66.84;100150.56;5488282;26;20010;-50
2024/04/10 04:07:56;;;;;;;9.10;2.08;;;;;;;16.43;67.29;100151.50;5488418;26;20006;-52
2024/04/10 04:10:23;;;;;;;7.25;1.88;;;;;;;16.48;66.39;100170.78;5489303;26;20504;-55
2024/04/10 04:12:53;;;;;;;9.35;2.08;;;;;;;16.56;65.91;100160.19;5491470;26;20013;-54
2024/04/10 04:15:24;;;;;;;6.20;1.50;;;;;;;16.60;65.85;100166.19;5492399;26;20408;-54
2024/04/10 04:17:54;;;;;;;6.43;1.75;;;;;;;16.51;66.32;100167.84;5489963;26;19998;-53
2024/04/10 04:20:21;;;;;;;3.97;1.75;;;;;;;16.45;66.09;100168.34;5490404;26;20101;-52
2024/04/10 04:22:51;;;;;;;7.95;2.08;;;;;;;16.51;65.90;100172.38;5488291;26;20042;-53
2024/04/10 04:25:19;;;;;;;6.07;1.75;;;;;;;16.40;65.52;100162.50;5488106;26;20445;-49
2024/04/10 04:27:48;;;;;;;5.60;1.70;;;;;;;16.27;65.88;100180.69;5488262;26;19998;-51
2024/04/10 04:30:16;;;;;;;6.60;1.80;;;;;;;16.23;66.02;100176.56;5488524;26;20005;-48
2024/04/10 04:32:48;;;;;;;6.03;1.90;;;;;;;16.25;66.05;100170.06;5488180;26;20010;-50
2024/04/10 04:35:16;;;;;;;5.20;2.00;;;;;;;16.35;65.37;100178.22;5487824;26;20071;-52
2024/04/10 04:37:56;;;;;;;5.68;1.85;;;;;;;16.20;65.75;100174.13;5488022;25;20010;-53
2024/04/10 04:40:30;;;;;;;4.55;1.77;;;;;;;16.26;65.46;100174.47;5488009;26;20005;-51
2024/04/10 04:43:02;;;;;;;7.93;1.77;;;;;;;16.27;65.57;100175.31;5487895;26;20010;-54
2024/04/10 04:45:29;;;;;;;6.93;2.05;;;;;;;16.27;65.54;100178.84;5488290;26;19998;-56
2024/04/10 04:48:02;;;;;;;3.33;1.65;;;;;;;16.31;64.97;100176.78;5487948;26;20021;-55
2024/04/10 04:50:32;;;;;;;7.18;1.73;;;;;;;16.32;64.61;100186.56;5487978;26;20009;-54
2024/04/10 04:53:00;;;;;;;8.50;2.28;;;;;;;16.31;64.66;100201.00;5487827;26;20528;-50
2024/04/10 04:55:31;;;;;;;3.72;1.83;;;;;;;16.11;64.61;100196.41;5487551;26;19998;-55
2024/04/10 04:57:58;;;;;;;6.50;2.08;;;;;;;16.16;64.10;100205.81;5486184;26;20037;-55
2024/04/10 05:00:28;;;;;;;7.68;2.42;;;;;;;16.39;63.79;100195.78;5487206;26;20035;-54
2024/04/10 05:02:56;;;;;;;9.75;2.00;;;;;;;16.13;63.26;100203.41;5497783;26;20005;-50
2024/04/10 05:05:29;;;;;;;7.00;2.17;;;;;;;16.38;63.05;100212.94;5524490;25;20069;-53
2024/04/10 05:07:59;;;;;;;4.75;1.80;;;;;;;16.30;62.50;100223.47;5523818;25;20434;-50
2024/04/10 05:10:29;;;;;;;5.13;1.88;;;;;;;16.52;62.13;100246.78;5524580;25;20076;-53
2024/04/10 05:12:57;;;;;;;11.07;2.00;;;;;;;16.33;61.91;100239.41;5524615;25;19998;-53
2024/04/10 05:15:27;;;;;;;7.93;2.00;;;;;;;16.34;61.64;100246.47;5523923;25;20005;-52
2024/04/10 05:17:54;;;;;;;5.95;1.80;;;;;;;16.48;60.91;100234.53;5524131;25;20009;-52
2024/04/10 05:20:24;;;;;;;11.85;2.20;;;;;;;16.23;61.40;100233.09;5524304;25;19997;-51
2024/04/10 05:22:55;;;;;;;8.13;1.90;;;;;;;16.34;61.80;100235.72;5523633;25;20435;-50
2024/04/10 05:25:25;;;;;;;9.38;2.15;;;;;;;16.50;60.68;100235.25;5524133;25;20332;-52
2024/04/10 05:27:52;;;;;;;11.45;4.35;;;;;;;16.51;60.75;100240.53;5524092;25;20008;-56
2024/04/10 05:30:23;;;;;;;17.27;9.43;;;;;;;16.48;60.20;100243.47;5523932;25;20331;-54
2024/04/10 05:32:50;;;;;;;13.50;2.78;;;;;;;16.43;59.90;100244.84;5523961;25;20066;-51
2024/04/10 05:35:20;;;;;;;6.28;2.35;;;;;;;16.40;59.73;100247.78;5523691;25;19997;-51
2024/04/10 05:37:48;;;;;;;8.35;1.95;;;;;;;16.46;59.70;100261.59;5523570;25;20005;-53
2024/04/10 05:40:21;;;;;;;7.45;1.70;;;;;;;16.46;60.38;100258.91;5523242;25;20068;-52
2024/04/10 05:42:48;;;;;;;7.43;1.90;;;;;;;16.33;60.28;100258.25;5523499;25;19998;-49
2024/04/10 05:45:18;;;;;;;7.88;1.90;;;;;;;16.31;59.85;100263.75;5522831;25;19997;-50
2024/04/10 05:47:49;;;;;;;7.50;2.03;;;;;;;16.37;59.61;100261.50;5523100;25;19997;-53
2024/04/10 05:50:19;;;;;;;10.75;2.10;;;;;;;16.66;58.75;100281.44;5523789;25;20334;-55
2024/04/10 05:52:47;;;;;;;8.05;1.58;;;;;;;16.50;58.42;100273.84;5524060;25;20009;-53
2024/04/10 05:55:17;;;;;;;7.15;1.77;;;;;;;16.82;57.41;100275.66;5523260;25;20006;-53
2024/04/10 05:57:49;;;;;;;9.02;1.60;;;;;;;16.74;57.43;100286.22;5523077;25;20009;-52
2024/04/10 06:00:19;;;;;;;7.25;1.52;;;;;;;16.90;58.06;100289.31;5523043;25;20005;-54
2024/04/10 06:02:50;;;;;;;6.00;1.55;;;;;;;16.87;57.20;100298.50;5522970;25;19997;-53
2024/04/10 06:05:17;;;;;;;10.30;1.95;;;;;;;16.91;57.19;100298.25;5522908;25;19997;-52
2024/04/10 06:07:47;;;;;;;5.22;1.52;;;;;;;16.97;57.24;100295.00;5522586;25;20009;-53
2024/04/10 06:10:19;;;;;;;8.27;1.48;;;;;;;16.96;57.16;100290.59;5523311;25;20002;-53
2024/04/10 06:12:53;;;;;;;9.68;1.85;;;;;;;17.02;57.46;100290.94;5523079;25;20005;-52
2024/04/10 06:15:20;;;;;;;6.00;1.75;;;;;;;16.71;57.76;100294.56;5523222;25;19994;-51
2024/04/10 06:17:50;;;;;;;10.43;1.85;;;;;;;16.89;57.42;100301.09;5522840;25;20470;-50
2024/04/10 06:20:18;;;;;;;7.95;1.95;;;;;;;16.78;57.50;100301.97;5523156;25;20367;-51
2024/04/10 06:22:48;;;;;;;8.73;1.83;;;;;;;16.51;58.24;100321.31;5523285;25;20013;-51
2024/04/10 06:25:16;;;;;;;4.70;1.42;;;;;;;16.46;58.63;100315.44;5523361;25;20294;-52
2024/04/10 06:27:46;;;;;;;6.43;1.90;;;;;;;16.67;58.27;100302.00;5522950;25;20494;-54
2024/04/10 06:30:16;;;;;;;8.82;1.70;;;;;;;16.35;59.52;100315.47;5522763;25;19998;-51
2024/04/10 06:32:49;;;;;;;5.88;1.60;;;;;;;16.31;59.71;100312.22;5523037;25;20384;-54
2024/04/10 06:35:18;;;;;;;6.57;2.05;;;;;;;16.77;58.90;100319.13;5522752;25;19998;-53
2024/04/10 06:37:48;;;;;;;9.10;1.67;;;;;;;17.03;57.60;100314.22;5523032;25;20046;-53
2024/04/10 06:40:15;;;;;;;7.05;1.60;;;;;;;16.79;57.74;100313.59;5523349;25;20005;-53
2024/04/10 06:42:45;;;;;;;6.70;2.47;;;;;;;16.69;58.01;100318.06;5523169;25;20012;-53
2024/04/10 06:45:13;;;;;;;10.13;1.80;;;;;;;16.62;58.28;100325.78;5523014;25;20069;-52
2024/04/10 06:47:45;;;;;;;8.73;2.25;;;;;;;16.77;58.15;100323.66;5523104;25;19998;-52
2024/04/10 06:50:13;;;;;;;7.60;1.83;;;;;;;16.75;57.94;100323.78;5523167;25;20032;-50
2024/04/10 06:52:43;;;;;;;9.60;1.80;;;;;;;17.09;57.40;100337.94;5523299;25;19998;-53
2024/04/10 06:55:10;;;;;;;8.95;1.70;;;;;;;17.25;57.69;100337.47;5523081;25;19998;-51
2024/04/10 06:57:40;;;;;;;9.23;1.42;;;;;;;17.35;57.22;100334.81;5522990;25;20069;-53
2024/04/10 07:00:12;;;;;;;8.10;2.10;;;;;;;17.45;56.67;100351.91;5523130;25;20073;-56
2024/04/10 07:02:46;;;;;;;5.43;2.15;;;;;;;17.11;57.51;100345.91;5523534;25;20058;-53
2024/04/10 07:05:14;;;;;;;6.82;1.70;;;;;;;17.33;57.12;100343.03;5522736;25;20384;-54
2024/04/10 07:07:45;;;;;;;5.15;1.70;;;;;;;17.42;56.60;100353.03;5522650;25;20466;-52
2024/04/10 07:10:12;;;;;;;8.95;2.28;;;;;;;17.59;56.69;100359.66;5522368;25;20021;-55
2024/04/10 07:12:42;;;;;;;10.30;2.70;;;;;;;17.61;56.05;100351.41;5492732;25;20051;-51
2024/04/10 07:15:12;;;;;;;5.88;1.60;;;;;;;17.95;55.94;100355.59;5485587;26;20464;-55
2024/04/10 07:17:39;;;;;;;8.10;1.83;;;;;;;18.23;54.69;100347.66;5485322;26;20336;-51
2024/04/10 07:20:14;;;;;;;8.18;1.90;;;;;;;17.86;55.53;100364.50;5503589;26;20002;-54
2024/04/10 07:22:42;;;;;;;4.93;1.75;;;;;;;17.97;55.62;100359.00;5526261;25;19998;-56
2024/04/10 07:25:12;;;;;;;9.52;1.83;;;;;;;18.05;54.85;100360.13;5527815;25;20009;-53
2024/04/10 07:27:39;;;;;;;10.50;1.70;;;;;;;18.24;54.38;100360.22;5514787;26;20013;-54
2024/04/10 07:30:09;;;;;;;6.57;1.83;;;;;;;18.08;55.28;100359.88;5503853;26;20092;-50
2024/04/10 07:32:37;;;;;;;7.88;1.40;;;;;;;17.91;55.43;100364.91;5489174;26;20006;-53
2024/04/10 07:35:09;;;;;;;8.15;1.40;;;;;;;18.30;54.14;100357.78;5489445;26;20473;-54
2024/04/10 07:37:42;;;;;;;5.13;1.50;;;;;;;18.49;53.82;100366.91;5489772;26;20451;-53
2024/04/10 07:40:15;;;;;;;8.88;1.35;;;;;;;18.40;54.22;100365.91;5491082;26;20016;-54
2024/04/10 07:42:45;;;;;;;5.43;1.58;;;;;;;18.63;53.18;100363.81;5504119;26;20029;-53
2024/04/10 07:45:20;;;;;;;7.20;1.92;;;;;;;18.84;53.50;100369.97;5523923;26;20016;-51
2024/04/10 07:47:48;;;;;;;10.30;1.67;;;;;;;18.83;52.68;100378.22;5515219;25;20037;-56
2024/04/10 07:50:18;;;;;;;5.85;1.52;;;;;;;18.56;54.17;100371.63;5503375;25;20419;-54
2024/04/10 07:52:50;;;;;;;10.50;1.60;;;;;;;18.78;53.23;100377.78;5489134;25;20026;-57
2024/04/10 07:55:20;;;;;;;6.60;1.70;;;;;;;18.74;53.09;100385.31;5488333;26;20010;-55
2024/04/10 07:57:48;;;;;;;7.55;1.55;;;;;;;18.59;52.84;100382.13;5487957;26;20027;-51
2024/04/10 08:00:18;;;;;;;4.82;1.52;;;;;;;18.69;53.36;100384.03;5493397;26;20002;-56
2024/04/10 08:02:46;;;;;;;8.75;1.95;;;;;;;18.43;53.94;100378.25;5487753;26;20009;-56
2024/04/10 08:05:17;;;;;;;3.30;1.33;;;;;;;18.60;53.87;100386.53;5494520;26;20001;-60
2024/04/10 08:07:44;;;;;;;7.65;1.85;;;;;;;18.67;53.34;100400.38;5516048;25;20046;-56
2024/04/10 08:10:17;;;;;;;7.72;2.10;;;;;;;18.72;53.17;100392.72;5506658;25;20536;-57
2024/04/10 08:12:44;;;;;;;4.63;1.65;;;;;;;19.00;52.71;100406.34;5504350;26;20121;-54
2024/04/10 08:15:20;;;;;;;4.95;1.67;;;;;;;18.57;53.97;100413.00;5488859;26;19998;-55
2024/04/10 08:17:48;;;;;;;8.18;1.95;;;;;;;18.44;53.85;100415.09;5485984;26;20009;-55
2024/04/10 08:20:18;;;;;;;5.22;1.77;;;;;;;18.78;53.09;100421.84;5487713;26;20391;-55
2024/04/10 08:22:46;;;;;;;3.90;1.60;;;;;;;18.46;53.57;100423.91;5523705;26;20332;-56
2024/04/10 08:25:19;;;;;;;9.52;1.75;;;;;;;18.37;54.21;100424.75;5494857;25;20010;-54
2024/04/10 08:27:46;;;;;;;5.03;1.50;;;;;;;18.87;53.55;100429.13;5488240;26;20018;-56
2024/04/10 08:30:16;;;;;;;6.65;1.80;;;;;;;19.24;52.96;100435.69;5488450;26;20008;-56
2024/04/10 08:32:44;;;;;;;6.82;1.80;;;;;;;19.55;51.99;100425.53;5487611;26;20009;-54
2024/04/10 08:35:14;;;;;;;2.78;1.20;;;;;;;19.27;51.59;100438.94;5486988;26;20009;-56
2024/04/10 08:37:41;;;;;;;5.72;1.45;;;;;;;19.58;51.93;100436.06;5487808;26;20412;-56
2024/04/10 08:40:12;;;;;;;4.65;1.73;;;;;;;19.68;51.51;100453.13;5487671;26;20017;-56
2024/04/10 08:42:48;;;;;;;5.45;1.88;;;;;;;19.16;51.91;100456.16;5487615;26;20010;-55
2024/04/10 08:45:23;;;;;;;7.63;1.80;;;;;;;19.13;52.19;100455.59;5487502;26;20009;-56
2024/04/10 08:47:51;;;;;;;8.88;2.00;;;;;;;18.56;53.02;100451.81;5487468;26;20002;-53
2024/04/10 08:50:21;;;;;;;6.78;2.45;;;;;;;19.04;52.95;100461.88;5487582;26;20005;-56
2024/04/10 08:52:50;;;;;;;8.45;2.10;;;;;;;19.45;52.22;100458.00;5487115;26;19997;-56
2024/04/10 08:55:20;;;;;;;6.13;1.75;;;;;;;19.13;51.75;100466.44;5487011;26;20009;-50
2024/04/10 08:57:50;;;;;;;5.00;1.75;;;;;;;19.07;52.26;100466.97;5487140;26;19998;-54
2024/04/10 09:00:21;;;;;;;6.45;2.00;;;;;;;19.27;52.09;100460.56;5487248;26;20008;-51
2024/04/10 09:02:48;;;;;;;5.85;1.70;;;;;;;19.52;51.70;100471.81;5487415;26;20368;-54
2024/04/10 09:05:27;;;;;;;4.70;1.65;;;;;;;19.71;50.97;100478.06;5487457;26;20026;-55
2024/04/10 09:07:58;;;;;;;10.50;1.83;;;;;;;19.60;50.96;100475.53;5494453;26;20439;-58
2024/04/10 09:10:28;;;;;;;7.45;1.95;;;;;;;19.44;51.41;100476.09;5523888;25;20004;-57
2024/04/10 09:13:07;;;;;;;6.80;1.58;;;;;;;19.64;51.71;100476.09;5524358;25;20009;-56
2024/04/10 09:15:38;;;;;;;7.93;1.92;;;;;;;19.56;51.59;100471.41;5523710;25;20022;-59
2024/04/10 09:18:06;;;;;;;8.75;1.83;;;;;;;19.65;51.90;100477.78;5524005;25;20008;-54
2024/04/10 09:20:37;;;;;;;4.93;1.90;;;;;;;19.87;51.55;100466.63;5524084;25;20419;-56
2024/04/10 09:23:05;;;;;;;4.10;1.67;;;;;;;19.70;51.17;100470.97;5524059;25;20121;-55
2024/04/10 09:25:37;;;;;;;10.10;2.00;;;;;;;19.96;51.34;100473.00;5522902;25;20009;-54
2024/04/10 09:28:08;;;;;;;8.52;2.03;;;;;;;20.05;50.92;100477.53;5523415;25;20311;-57
2024/04/10 09:30:39;;;;;;;11.05;1.70;;;;;;;19.95;50.90;100496.53;5523987;25;20073;-55
2024/04/10 09:33:08;;;;;;;7.50;1.90;;;;;;;19.55;51.56;100499.41;5523483;25;19998;-56
2024/04/10 09:35:39;;;;;;;4.80;1.65;;;;;;;19.40;51.56;100496.31;5523522;25;19998;-56
2024/04/10 09:38:06;;;;;;;8.68;2.00;;;;;;;19.48;51.63;100498.28;5523716;25;19998;-56
2024/04/10 09:40:41;;;;;;;9.55;2.05;;;;;;;19.66;51.58;100499.28;5523634;25;20023;-55
2024/04/10 09:43:16;;;;;;;7.65;1.88;;;;;;;19.62;51.55;100502.44;5522503;25;20013;-53
2024/04/10 09:45:48;;;;;;;5.05;1.73;;;;;;;19.30;52.31;100498.16;5523428;25;20008;-56
2024/04/10 09:48:18;;;;;;;7.07;1.83;;;;;;;19.72;51.73;100511.41;5523545;25;20069;-56
2024/04/10 09:50:50;;;;;;;4.53;1.70;;;;;;;19.46;51.88;100519.22;5523468;25;19998;-54
2024/04/10 09:53:19;;;;;;;5.53;1.98;;;;;;;19.40;52.14;100523.38;5523772;25;20007;-55
2024/04/10 09:55:49;;;;;;;4.57;1.55;;;;;;;19.58;52.61;100530.78;5523374;25;20010;-57
2024/04/10 09:58:19;;;;;;;4.78;2.00;;;;;;;19.27;53.33;100533.59;5523014;25;19998;-53
2024/04/10 10:00:49;;;;;;;8.88;2.08;;;;;;;19.57;52.69;100526.38;5523618;25;19998;-56
2024/04/10 10:03:25;;;;;;;9.52;1.90;;;;;;;19.73;52.30;100530.19;5523366;25;19997;-55
2024/04/10 10:06:04;;;;;;;7.00;1.80;;;;;;;19.50;52.92;100528.78;5522681;25;20005;-58
2024/04/10 10:08:32;;;;;;;7.13;2.25;;;;;;;19.68;53.07;100523.50;5523044;25;20004;-54
2024/04/10 10:11:05;;;;;;;8.82;2.13;;;;;;;19.77;52.92;100522.63;5522967;25;20037;-52
2024/04/10 10:13:41;;;;;;;7.32;2.17;;;;;;;19.49;53.18;100537.84;5522894;25;20009;-54
2024/04/10 10:16:12;;;;;;;7.65;2.08;;;;;;;19.78;52.48;100527.03;5522402;25;19998;-56
2024/04/10 10:18:40;;;;;;;6.40;1.90;;;;;;;19.85;52.28;100528.19;5522729;25;20184;-53
2024/04/10 10:21:12;;;;;;;7.90;2.25;;;;;;;19.64;53.04;100527.50;5523416;25;20025;-56
2024/04/10 10:23:41;;;;;;;10.15;2.50;;;;;;;19.55;53.62;100525.63;5523637;25;20008;-56
2024/04/10 10:26:11;;;;;;;8.80;2.10;;;;;;;19.73;53.24;100542.88;5521505;25;20005;-51
2024/04/10 10:28:41;;;;;;;7.97;2.35;;;;;;;19.43;53.68;100528.47;5522948;25;20319;-55
2024/04/10 10:31:14;;;;;;;7.32;2.25;;;;;;;19.51;53.92;100532.34;5522478;25;20004;-54
2024/04/10 10:33:43;;;;;;;5.80;2.17;;;;;;;19.04;55.07;100526.75;5522971;25;19993;-54
2024/04/10 10:36:14;;;;;;;9.35;2.45;;;;;;;19.23;54.88;100545.69;5522371;25;19994;-54
2024/04/10 10:38:41;;;;;;;6.88;1.83;;;;;;;19.65;54.13;100545.44;5522851;25;20065;-61
2024/04/10 10:41:14;;;;;;;5.80;2.13;;;;;;;19.87;53.44;100544.28;5523022;25;20009;-55
2024/04/10 10:43:57;;;;;;;7.28;2.30;;;;;;;19.67;54.11;100551.56;5522434;25;20017;-56
2024/04/10 10:46:27;;;;;;;7.82;2.33;;;;;;;19.51;53.82;100560.25;5522313;25;19998;-52
2024/04/10 10:48:55;;;;;;;9.50;2.45;;;;;;;19.51;54.31;100548.56;5522380;25;19997;-55
2024/04/10 10:51:25;;;;;;;8.80;2.20;;;;;;;19.28;54.97;100556.06;5522674;25;20033;-56
2024/04/10 10:53:53;;;;;;;6.40;2.20;;;;;;;19.00;55.12;100557.72;5523053;25;19997;-54
2024/04/10 10:56:26;;;;;;;5.55;2.50;;;;;;;19.34;55.08;100571.75;5525978;25;20008;-53
2024/04/10 10:59:09;;;;;;;10.30;2.35;;;;;;;18.89;55.81;100569.53;5526256;25;20464;-53
2024/04/10 11:01:43;;;;;;;6.30;2.30;;;;;;;18.92;56.31;100581.94;5528570;25;20017;-58
2024/04/10 11:04:16;;;;;;;7.32;2.47;;;;;;;19.10;55.79;100564.00;5526935;25;20047;-55
2024/04/10 11:06:46;;;;;;;7.78;2.20;;;;;;;19.36;55.37;100570.59;5529807;25;19993;-55
2024/04/10 11:09:15;;;;;;;5.47;2.25;;;;;;;19.25;55.24;100570.75;5529861;25;20065;-56
2024/04/10 11:11:46;;;;;;;12.57;3.25;;;;;;;19.15;55.62;100562.63;5528397;25;20008;-54
2024/04/10 11:14:24;;;;;;;6.32;2.20;;;;;;;19.00;56.80;100577.50;5526459;25;20038;-57
2024/04/10 11:17:00;;;;;;;6.80;2.47;;;;;;;19.38;55.61;100578.56;5525440;25;20009;-54
2024/04/10 11:19:28;;;;;;;7.45;2.35;;;;;;;19.12;56.01;100578.28;5525765;25;19998;-56
2024/04/10 11:22:19;;;;;;;8.40;2.47;;;;;;;19.15;55.76;100581.53;5525402;25;20012;-51
2024/04/10 11:24:49;;;;;;;4.60;2.45;;;;;;;18.97;56.37;100579.66;5525821;25;19997;-54
2024/04/10 11:27:19;;;;;;;7.97;2.25;;;;;;;19.11;56.72;100577.41;5525823;25;19998;-54
2024/04/10 11:29:50;;;;;;;5.13;2.30;;;;;;;19.26;56.50;100582.41;5526190;25;20008;-55
2024/04/10 11:32:21;;;;;;;6.40;2.03;;;;;;;19.42;55.69;100583.59;5526172;25;20450;-56
2024/04/10 11:34:48;;;;;;;6.53;2.17;;;;;;;19.49;55.88;100585.69;5525691;25;20096;-58
2024/04/10 11:37:19;;;;;;;2.63;1.77;;;;;;;18.97;56.82;100585.06;5525221;25;20466;-56
2024/04/10 11:39:46;;;;;;;6.03;2.13;;;;;;;19.18;56.02;100593.91;5525235;25;20465;-57